Time;durP1;ratioP1;P1;durP2;ratioP2;P2;SDS_P1;SDS_P2;PMS_P1;PMS_P2;Temp;Humidity;BMP_temperature;BMP_pressure;BME280_temperature;BME280_humidity;BME280_pressure;Samples;Min_cycle;Max_cycle;Signal;HPM_P1;HPM_P2
2021/12/07 00:01:21;;;;;;;30.40;4.93;;;5.60;99.90;;;;;;4893570;29;20215;-83
2021/12/07 00:03:47;;;;;;;27.87;3.83;;;5.80;99.90;;;;;;4895134;29;20258;-84
2021/12/07 00:06:15;;;;;;;17.20;3.30;;;5.90;99.90;;;;;;4918672;29;20226;-82
2021/12/07 00:08:42;;;;;;;24.87;3.57;;;6.10;99.90;;;;;;4930761;29;20285;-83
2021/12/07 00:11:12;;;;;;;15.93;3.97;;;6.20;99.90;;;;;;4930781;29;20210;-85
2021/12/07 00:13:39;;;;;;;21.60;4.17;;;6.30;99.90;;;;;;4928991;29;20213;-85
2021/12/07 00:16:09;;;;;;;24.37;4.67;;;6.40;99.90;;;;;;4931392;29;20599;-84
2021/12/07 00:18:36;;;;;;;15.43;3.70;;;6.50;99.90;;;;;;4930793;29;20218;-85
2021/12/07 00:21:06;;;;;;;15.10;3.40;;;6.70;99.90;;;;;;4931373;29;20268;-82
2021/12/07 00:23:34;;;;;;;13.20;3.93;;;6.80;99.90;;;;;;4898857;29;20330;-84
2021/12/07 00:26:00;;;;;;;23.00;4.33;;;6.90;99.90;;;;;;4913444;29;20258;-84
2021/12/07 00:28:29;;;;;;;24.10;4.27;;;6.90;99.90;;;;;;4912683;29;20211;-81
2021/12/07 00:31:03;;;;;;;17.50;3.40;;;7.00;99.90;;;;;;4950629;29;20209;-84
2021/12/07 00:33:37;;;;;;;15.23;3.57;;;7.00;99.90;;;;;;4948351;29;20357;-83
2021/12/07 00:36:05;;;;;;;17.23;3.47;;;7.10;99.90;;;;;;4949810;29;20209;-82
2021/12/07 00:38:31;;;;;;;23.27;3.47;;;7.20;99.90;;;;;;4928903;29;20514;-80
2021/12/07 00:41:01;;;;;;;21.00;3.47;;;7.10;99.90;;;;;;4935688;29;20197;-83
2021/12/07 00:43:32;;;;;;;15.40;2.73;;;7.10;99.90;;;;;;4966573;28;20684;-80
2021/12/07 00:46:00;;;;;;;14.10;2.87;;;7.20;99.90;;;;;;4969721;28;20200;-82
2021/12/07 00:48:28;;;;;;;15.13;3.37;;;7.20;99.90;;;;;;4968895;28;20240;-84
2021/12/07 00:50:56;;;;;;;17.13;3.70;;;7.20;99.90;;;;;;4972426;28;20305;-84
2021/12/07 00:53:25;;;;;;;13.70;2.97;;;7.30;99.90;;;;;;5009996;28;20552;-82
2021/12/07 00:55:54;;;;;;;13.73;3.63;;;7.30;99.90;;;;;;5010172;28;20203;-82
2021/12/07 00:58:23;;;;;;;15.27;3.33;;;7.30;99.90;;;;;;5009509;28;20203;-85
2021/12/07 01:00:55;;;;;;;19.27;3.63;;;7.30;99.90;;;;;;5010259;28;20242;-80
2021/12/07 01:03:23;;;;;;;19.20;2.83;;;7.30;99.90;;;;;;5009503;28;20243;-85
2021/12/07 01:05:53;;;;;;;10.27;2.77;;;7.30;99.90;;;;;;5011099;28;20199;-84
2021/12/07 01:24:44;;;;;;;10.53;2.53;;;7.30;99.90;;;;;;5010236;28;20500;-84
2021/12/07 01:27:14;;;;;;;13.23;3.93;;;7.20;99.90;;;;;;5010456;28;20538;-84
2021/12/07 01:29:42;;;;;;;11.23;3.17;;;7.20;99.90;;;;;;5019416;28;20463;-84
2021/12/07 01:32:23;;;;;;;15.43;4.33;;;7.20;99.90;;;;;;5030180;28;20204;-83
2021/12/07 01:37:43;;;;;;;12.77;2.87;;;7.10;99.90;;;;;;5017229;28;20213;-83
2021/12/07 01:40:31;;;;;;;15.03;2.67;;;7.10;99.90;;;;;;5022409;28;20213;-84
2021/12/07 01:46:11;;;;;;;12.40;2.57;;;7.20;99.90;;;;;;5022427;28;20210;-83
2021/12/07 01:59:44;;;;;;;5.83;1.80;;;7.30;99.90;;;;;;4977344;28;20952;-83
2021/12/07 02:02:15;;;;;;;8.47;2.13;;;7.30;99.90;;;;;;5020080;28;20242;-84
2021/12/07 02:04:44;;;;;;;7.80;1.73;;;7.20;99.90;;;;;;5028040;28;20210;-83
2021/12/07 02:07:12;;;;;;;8.07;2.13;;;7.20;99.90;;;;;;5027311;28;20302;-84
2021/12/07 02:09:42;;;;;;;15.50;3.07;;;7.10;99.90;;;;;;5027126;28;20210;-84
2021/12/07 02:12:11;;;;;;;8.73;2.50;;;7.10;99.90;;;;;;5026411;28;20249;-84
2021/12/07 02:14:38;;;;;;;12.53;2.97;;;7.10;99.90;;;;;;5028626;28;20505;-82
2021/12/07 02:17:09;;;;;;;8.67;2.37;;;7.20;99.90;;;;;;5030193;28;20206;-84
2021/12/07 02:19:37;;;;;;;15.90;3.17;;;7.20;99.90;;;;;;5021746;28;20199;-84
2021/12/07 02:22:06;;;;;;;11.73;3.23;;;7.20;99.90;;;;;;5010646;28;20206;-84
2021/12/07 02:24:34;;;;;;;18.33;2.87;;;7.20;99.90;;;;;;5032043;28;20622;-83
2021/12/07 02:27:02;;;;;;;14.37;3.10;;;7.30;99.90;;;;;;5024710;28;20218;-85
2021/12/07 02:29:29;;;;;;;14.87;2.73;;;7.30;99.90;;;;;;5011635;28;20258;-84
2021/12/07 02:31:58;;;;;;;11.67;2.53;;;7.40;99.90;;;;;;5014408;28;20199;-84
2021/12/07 02:34:25;;;;;;;9.77;2.60;;;7.30;99.90;;;;;;5012636;28;20843;-84
2021/12/07 02:36:54;;;;;;;6.13;1.70;;;7.30;99.90;;;;;;5013358;28;20204;-83
2021/12/07 02:39:31;;;;;;;11.23;2.87;;;7.30;99.90;;;;;;5013591;28;20214;-84
2021/12/07 02:41:58;;;;;;;10.87;2.43;;;7.20;99.90;;;;;;5013743;28;20211;-84
2021/12/07 02:44:25;;;;;;;13.20;3.00;;;7.20;99.90;;;;;;5022256;28;20198;-82
2021/12/07 02:46:52;;;;;;;11.23;2.40;;;7.20;99.90;;;;;;5032450;28;20665;-83
2021/12/07 02:49:20;;;;;;;11.80;2.97;;;7.20;99.90;;;;;;5025501;28;20223;-84
2021/12/07 02:51:47;;;;;;;13.17;3.50;;;7.20;99.90;;;;;;5013747;28;20200;-84
2021/12/07 02:54:15;;;;;;;11.33;2.80;;;7.10;99.90;;;;;;5013540;28;20223;-83
2021/12/07 02:56:43;;;;;;;5.93;2.43;;;7.20;99.90;;;;;;5013219;28;20290;-83
2021/12/07 02:59:10;;;;;;;9.30;2.97;;;7.20;99.90;;;;;;5014316;28;20528;-82
2021/12/07 03:01:44;;;;;;;13.43;3.73;;;7.20;99.90;;;;;;5013134;28;20203;-86
2021/12/07 03:04:19;;;;;;;11.17;2.70;;;7.20;99.90;;;;;;5013927;28;20245;-85
2021/12/07 03:06:57;;;;;;;9.53;2.40;;;7.20;99.90;;;;;;5013271;28;20608;-85
2021/12/07 03:26:16;;;;;;;11.90;2.43;;;7.10;99.90;;;;;;4989922;28;20234;-85
2021/12/07 03:28:47;;;;;;;9.37;2.30;;;7.00;99.90;;;;;;5046740;28;20240;-86
2021/12/07 03:31:15;;;;;;;11.37;3.03;;;7.10;99.90;;;;;;5073625;28;20224;-85
2021/12/07 03:33:42;;;;;;;10.47;2.67;;;7.10;99.90;;;;;;5073067;28;20190;-85
2021/12/07 03:36:11;;;;;;;10.17;2.50;;;7.10;99.90;;;;;;5072622;28;20198;-85
2021/12/07 03:38:38;;;;;;;10.87;2.73;;;7.10;99.90;;;;;;5070125;28;20227;-84
2021/12/07 03:41:07;;;;;;;10.13;2.77;;;7.20;99.90;;;;;;5072416;28;20224;-85
2021/12/07 03:43:34;;;;;;;6.50;2.13;;;7.20;99.90;;;;;;5072298;28;20202;-84
2021/12/07 03:46:03;;;;;;;12.17;2.03;;;7.20;99.90;;;;;;5078656;28;20213;-86
2021/12/07 03:48:30;;;;;;;12.73;2.30;;;7.20;99.90;;;;;;5073910;28;20217;-85
2021/12/07 03:50:57;;;;;;;7.90;1.83;;;7.20;99.90;;;;;;5092533;28;20215;-85
2021/12/07 03:53:24;;;;;;;8.70;2.13;;;7.20;99.90;;;;;;5092525;28;20589;-81
2021/12/07 03:55:50;;;;;;;7.30;2.70;;;7.20;99.90;;;;;;5092478;28;20205;-85
2021/12/07 03:58:17;;;;;;;8.03;2.00;;;7.10;99.90;;;;;;5092781;28;20193;-82
2021/12/07 04:00:47;;;;;;;12.00;3.40;;;7.10;99.90;;;;;;5093316;28;20208;-83
2021/12/07 04:03:17;;;;;;;13.50;2.30;;;7.10;99.90;;;;;;5093305;28;20211;-86
2021/12/07 04:05:48;;;;;;;11.77;3.33;;;7.20;99.90;;;;;;5091506;28;20254;-84
2021/12/07 04:08:17;;;;;;;5.30;1.63;;;7.10;99.90;;;;;;5091865;28;20286;-85
2021/12/07 04:10:44;;;;;;;7.13;2.00;;;7.00;99.90;;;;;;5091206;28;20235;-82
2021/12/07 04:13:11;;;;;;;7.43;1.97;;;7.00;99.90;;;;;;5091081;28;20216;-83
2021/12/07 04:15:38;;;;;;;7.93;2.20;;;6.90;99.90;;;;;;5091402;28;20197;-83
2021/12/07 04:18:06;;;;;;;8.83;2.77;;;6.90;99.90;;;;;;5091687;28;20209;-85
2021/12/07 04:20:35;;;;;;;13.37;3.27;;;6.80;99.90;;;;;;5089501;28;20208;-83
2021/12/07 04:23:02;;;;;;;9.20;2.27;;;6.80;99.90;;;;;;5090702;28;20197;-84
2021/12/07 04:25:29;;;;;;;18.57;3.13;;;6.70;99.90;;;;;;5091199;28;20620;-85
2021/12/07 04:27:57;;;;;;;11.10;2.67;;;6.70;99.90;;;;;;5090258;28;20241;-83
2021/12/07 04:30:27;;;;;;;9.93;3.37;;;6.70;99.90;;;;;;5090946;28;20208;-82
2021/12/07 04:32:54;;;;;;;12.33;2.30;;;6.70;99.90;;;;;;5073208;28;20221;-84
2021/12/07 04:35:22;;;;;;;8.27;1.90;;;6.70;99.90;;;;;;5070239;28;20189;-82
2021/12/07 04:37:52;;;;;;;8.10;1.67;;;6.70;99.90;;;;;;5069883;28;20716;-83
2021/12/07 04:40:25;;;;;;;4.07;1.60;;;6.80;99.90;;;;;;5067742;28;20212;-81
2021/12/07 04:42:52;;;;;;;3.90;1.60;;;6.80;99.90;;;;;;5068375;28;20212;-81
2021/12/07 04:45:30;;;;;;;5.23;1.30;;;6.70;99.90;;;;;;5068145;28;20217;-83
2021/12/07 04:48:27;;;;;;;3.87;1.20;;;6.60;99.90;;;;;;5068140;28;20594;-81
2021/12/07 04:59:18;;;;;;;8.07;2.07;;;6.30;99.90;;;;;;5027576;28;20213;-85
2021/12/07 05:01:45;;;;;;;6.00;2.10;;;6.30;99.90;;;;;;5026357;28;20210;-84
2021/12/07 05:04:17;;;;;;;14.00;3.50;;;6.30;99.90;;;;;;5054590;28;20204;-84
2021/12/07 05:06:48;;;;;;;11.53;2.83;;;6.30;99.90;;;;;;5089590;28;20556;-88
2021/12/07 05:09:36;;;;;;;10.90;3.10;;;6.50;99.90;;;;;;5083579;28;20241;-84
2021/12/07 05:12:24;;;;;;;10.83;1.63;;;6.50;99.90;;;;;;5068874;28;20223;-85
2021/12/07 05:14:59;;;;;;;16.90;3.73;;;6.50;99.90;;;;;;5069535;28;20193;-83
2021/12/07 05:17:43;;;;;;;10.33;2.70;;;6.60;99.90;;;;;;5069275;28;20234;-86
2021/12/07 05:39:19;;;;;;;14.47;2.40;;;6.80;99.90;;;;;;5068545;28;20227;-83
2021/12/07 05:41:47;;;;;;;17.47;3.00;;;6.80;99.90;;;;;;5068684;28;20205;-85
2021/12/07 05:44:14;;;;;;;15.43;3.50;;;6.90;99.90;;;;;;5068597;28;20194;-83
2021/12/07 05:46:41;;;;;;;10.50;3.00;;;6.90;99.90;;;;;;5069827;28;20589;-84
2021/12/07 05:49:08;;;;;;;12.10;3.43;;;6.90;99.90;;;;;;5069739;28;20252;-83
2021/12/07 05:51:35;;;;;;;10.90;2.50;;;7.00;99.90;;;;;;5069054;28;20205;-83
2021/12/07 05:54:02;;;;;;;14.07;2.80;;;7.00;99.90;;;;;;5068945;28;20208;-83
2021/12/07 05:56:29;;;;;;;12.17;2.67;;;7.00;99.90;;;;;;5068143;28;20224;-80
2021/12/07 05:58:57;;;;;;;11.73;2.97;;;7.10;99.90;;;;;;5073003;28;20201;-82
2021/12/07 06:01:24;;;;;;;14.97;3.07;;;7.10;99.90;;;;;;5074518;28;20209;-83
2021/12/07 06:03:50;;;;;;;11.07;2.07;;;7.10;99.90;;;;;;5075355;28;20204;-83
2021/12/07 06:06:17;;;;;;;16.13;3.80;;;7.00;99.90;;;;;;5074494;28;20193;-84
2021/12/07 06:08:44;;;;;;;16.83;2.93;;;7.10;99.90;;;;;;5090434;28;20232;-84
2021/12/07 06:11:12;;;;;;;12.20;3.27;;;7.10;99.90;;;;;;5099422;28;20192;-83
2021/12/07 06:13:39;;;;;;;19.17;3.90;;;7.10;99.90;;;;;;5097492;28;20208;-83
2021/12/07 06:16:08;;;;;;;12.87;2.93;;;7.10;99.90;;;;;;5096398;28;20557;-82
2021/12/07 06:18:37;;;;;;;11.03;3.37;;;7.20;99.90;;;;;;5074022;28;20563;-84
2021/12/07 06:21:04;;;;;;;8.40;2.53;;;7.20;99.90;;;;;;5072340;28;20209;-84
2021/12/07 06:23:31;;;;;;;8.47;2.90;;;7.20;99.90;;;;;;5073033;28;20914;-84
2021/12/07 06:25:59;;;;;;;8.23;2.13;;;7.10;99.90;;;;;;5090891;28;20228;-85
2021/12/07 06:28:26;;;;;;;9.83;2.33;;;7.00;99.90;;;;;;5093243;28;20658;-85
2021/12/07 06:30:52;;;;;;;11.17;2.10;;;6.90;99.90;;;;;;5092179;28;20220;-84
2021/12/07 06:33:23;;;;;;;9.23;2.03;;;6.80;99.90;;;;;;5093292;28;20208;-83
2021/12/07 06:35:56;;;;;;;11.27;1.93;;;6.80;99.90;;;;;;5093615;28;20208;-83
2021/12/07 06:38:23;;;;;;;9.63;2.00;;;6.70;99.90;;;;;;5093155;28;20245;-84
2021/12/07 06:40:52;;;;;;;14.23;2.70;;;6.70;99.90;;;;;;5074119;28;20224;-83
2021/12/07 06:43:19;;;;;;;17.07;2.80;;;6.70;99.90;;;;;;5071765;28;20213;-83
2021/12/07 06:45:46;;;;;;;12.53;2.30;;;6.70;99.90;;;;;;5090820;28;20217;-83
2021/12/07 06:48:13;;;;;;;8.00;2.30;;;6.60;99.90;;;;;;5081878;28;20225;-83
2021/12/07 06:50:41;;;;;;;4.17;1.60;;;6.60;99.90;;;;;;5071980;28;20213;-82
2021/12/07 06:53:08;;;;;;;7.43;1.60;;;6.60;99.90;;;;;;5071411;28;20216;-83
2021/12/07 06:55:36;;;;;;;5.40;1.90;;;6.60;99.90;;;;;;5072560;28;20201;-84
2021/12/07 06:58:03;;;;;;;14.90;2.90;;;6.60;99.90;;;;;;5072582;28;20209;-83
2021/12/07 07:00:30;;;;;;;11.90;3.57;;;6.50;99.90;;;;;;5072537;28;20198;-82
2021/12/07 07:02:57;;;;;;;6.90;2.63;;;6.40;99.90;;;;;;5072965;28;20578;-84
2021/12/07 07:05:24;;;;;;;9.37;2.20;;;6.30;99.90;;;;;;5086606;28;20204;-84
2021/12/07 07:07:52;;;;;;;14.17;2.53;;;6.20;99.90;;;;;;5092762;28;20218;-84
2021/12/07 07:10:20;;;;;;;11.13;3.03;;;6.20;99.90;;;;;;5089867;28;20715;-85
2021/12/07 07:12:48;;;;;;;9.90;2.50;;;6.10;99.90;;;;;;5093373;28;20204;-83
2021/12/07 07:15:16;;;;;;;9.60;2.73;;;6.00;99.90;;;;;;5078401;28;20227;-85
2021/12/07 07:17:44;;;;;;;9.83;2.67;;;6.00;99.90;;;;;;5073771;28;20201;-85
2021/12/07 07:20:15;;;;;;;24.10;3.90;;;5.90;99.90;;;;;;5070936;28;20248;-86
2021/12/07 07:22:42;;;;;;;6.40;1.80;;;5.90;99.90;;;;;;5073073;28;20193;-85
2021/12/07 07:25:12;;;;;;;11.47;2.33;;;5.90;99.90;;;;;;5073448;28;20212;-84
2021/12/07 07:27:39;;;;;;;7.40;1.97;;;5.80;99.90;;;;;;5073473;28;20224;-85
2021/12/07 07:30:08;;;;;;;10.87;2.30;;;5.80;99.90;;;;;;5072811;28;20217;-84
2021/12/07 07:32:36;;;;;;;8.87;2.10;;;5.80;99.90;;;;;;5072265;28;20653;-85
2021/12/07 07:35:04;;;;;;;6.97;2.07;;;5.70;99.90;;;;;;5084906;28;21005;-85
2021/12/07 07:37:31;;;;;;;9.73;2.00;;;5.70;99.90;;;;;;5092834;28;20288;-84
2021/12/07 07:39:58;;;;;;;9.27;2.23;;;5.70;99.90;;;;;;5072960;28;20531;-83
2021/12/07 07:42:26;;;;;;;13.43;3.03;;;5.70;99.90;;;;;;5072698;28;20208;-84
2021/12/07 07:44:53;;;;;;;11.23;2.40;;;5.60;99.90;;;;;;5076919;28;20205;-84
2021/12/07 07:47:20;;;;;;;11.30;2.60;;;5.60;99.90;;;;;;5072534;28;20211;-86
2021/12/07 07:50:15;;;;;;;9.70;2.20;;;5.60;99.90;;;;;;5051814;28;20791;-84
2021/12/07 07:52:42;;;;;;;6.43;1.93;;;5.50;99.90;;;;;;5085324;28;20204;-84
2021/12/07 07:55:11;;;;;;;6.67;1.70;;;5.50;99.90;;;;;;5092284;28;20300;-83
2021/12/07 07:57:40;;;;;;;13.17;1.87;;;5.40;99.90;;;;;;5072142;28;20262;-85
2021/12/07 08:00:10;;;;;;;7.90;2.13;;;5.40;99.90;;;;;;5071677;28;20773;-84
2021/12/07 08:02:37;;;;;;;7.17;1.83;;;5.40;99.90;;;;;;5071519;28;20639;-84
2021/12/07 08:05:05;;;;;;;6.03;2.13;;;5.30;99.90;;;;;;5088137;28;20604;-84
2021/12/07 08:07:32;;;;;;;6.07;1.80;;;5.30;99.90;;;;;;5069287;28;20197;-84
2021/12/07 08:09:59;;;;;;;9.57;2.00;;;5.30;99.90;;;;;;5070593;28;20241;-83
2021/12/07 08:12:26;;;;;;;11.30;2.13;;;5.30;99.90;;;;;;5076476;28;20203;-85
2021/12/07 08:14:54;;;;;;;8.37;1.90;;;5.30;99.90;;;;;;5089812;28;20210;-82
2021/12/07 08:17:21;;;;;;;6.17;2.57;;;5.30;99.90;;;;;;5088646;28;20200;-84
2021/12/07 08:19:47;;;;;;;9.50;3.00;;;5.30;99.90;;;;;;5089052;28;20496;-84
2021/12/07 08:22:14;;;;;;;10.37;3.10;;;5.30;99.90;;;;;;5090012;28;20208;-82
2021/12/07 08:24:41;;;;;;;10.93;3.77;;;5.40;99.90;;;;;;5088788;28;20196;-84
2021/12/07 08:27:10;;;;;;;8.80;2.90;;;5.40;99.90;;;;;;5068970;28;20826;-83
2021/12/07 08:29:36;;;;;;;12.37;3.17;;;5.40;99.90;;;;;;5069918;28;20229;-84
2021/12/07 08:32:06;;;;;;;7.57;3.53;;;5.40;99.90;;;;;;5070887;28;20204;-83
2021/12/07 08:34:32;;;;;;;11.53;3.27;;;5.40;99.90;;;;;;5070774;28;20209;-83
2021/12/07 08:36:59;;;;;;;9.87;3.67;;;5.40;99.90;;;;;;5070740;28;20593;-84
2021/12/07 08:39:26;;;;;;;7.77;2.87;;;5.50;99.90;;;;;;5069841;28;20208;-86
2021/12/07 08:41:53;;;;;;;9.47;2.80;;;5.50;99.90;;;;;;5070933;28;20292;-83
2021/12/07 08:44:20;;;;;;;8.67;3.00;;;5.50;99.90;;;;;;5077138;28;20200;-85
2021/12/07 08:46:47;;;;;;;7.30;2.33;;;5.60;99.90;;;;;;5090367;28;20197;-82
2021/12/07 08:49:16;;;;;;;10.30;3.37;;;5.60;99.90;;;;;;5091651;28;20229;-84
2021/12/07 08:51:43;;;;;;;6.93;2.20;;;5.60;99.90;;;;;;5090252;28;20206;-86
2021/12/07 08:54:25;;;;;;;7.73;2.57;;;5.60;99.90;;;;;;5090798;28;20216;-83
2021/12/07 08:59:40;;;;;;;7.87;2.33;;;5.70;99.90;;;;;;5070909;28;20259;-82
2021/12/07 09:02:07;;;;;;;6.63;2.23;;;5.70;99.90;;;;;;5071080;28;20477;-86
2021/12/07 09:04:36;;;;;;;7.20;2.50;;;5.60;99.90;;;;;;5072595;28;20203;-83
2021/12/07 09:07:05;;;;;;;7.10;2.03;;;5.70;99.90;;;;;;5090306;28;20209;-88
2021/12/07 09:09:32;;;;;;;4.90;2.23;;;5.70;99.90;;;;;;5090461;28;20236;-85
2021/12/07 09:11:59;;;;;;;3.63;1.60;;;5.70;99.90;;;;;;5091366;28;20358;-83
2021/12/07 09:14:27;;;;;;;8.67;2.10;;;5.70;99.90;;;;;;5081608;28;20216;-83
2021/12/07 09:16:54;;;;;;;6.40;1.87;;;5.80;99.90;;;;;;5070982;28;20204;-84
2021/12/07 09:19:21;;;;;;;5.70;1.90;;;5.90;99.90;;;;;;5071105;28;20229;-83
2021/12/07 09:21:49;;;;;;;5.20;2.13;;;5.90;99.90;;;;;;5090608;28;20199;-83
2021/12/07 09:24:17;;;;;;;7.13;2.13;;;6.00;99.90;;;;;;5090524;28;20200;-83
2021/12/07 09:26:44;;;;;;;6.90;2.50;;;6.00;99.90;;;;;;5090757;28;20241;-84
2021/12/07 09:29:11;;;;;;;5.80;1.90;;;6.10;99.90;;;;;;5073422;28;20624;-83
2021/12/07 09:31:39;;;;;;;9.37;2.57;;;6.20;99.90;;;;;;5072666;28;20193;-85
2021/12/07 09:34:07;;;;;;;7.80;2.70;;;6.20;99.90;;;;;;5075696;28;20208;-83
2021/12/07 09:36:34;;;;;;;9.37;2.50;;;6.30;99.90;;;;;;5074742;28;20251;-85
2021/12/07 09:39:05;;;;;;;9.10;2.93;;;6.30;99.90;;;;;;5072024;28;20197;-85
2021/12/07 09:41:32;;;;;;;11.67;3.93;;;6.30;99.90;;;;;;5074280;28;20212;-85
2021/12/07 09:43:59;;;;;;;11.80;3.47;;;6.30;99.90;;;;;;5076257;28;20205;-84
2021/12/07 09:46:26;;;;;;;10.27;3.20;;;6.30;99.90;;;;;;5095062;28;20207;-85
2021/12/07 09:48:54;;;;;;;6.20;3.07;;;6.30;99.90;;;;;;5092929;28;20243;-84
2021/12/07 09:51:24;;;;;;;16.90;4.30;;;6.30;99.90;;;;;;5093194;28;20227;-85
2021/12/07 09:53:52;;;;;;;9.20;3.40;;;6.30;99.90;;;;;;5079063;28;20204;-85
2021/12/07 09:56:22;;;;;;;10.70;3.53;;;6.30;99.90;;;;;;5084130;28;20245;-85
2021/12/07 09:58:50;;;;;;;10.97;3.93;;;6.30;99.90;;;;;;5074872;28;20198;-85
2021/12/07 10:01:18;;;;;;;11.27;3.03;;;6.30;99.90;;;;;;5074732;28;20217;-85
2021/12/07 10:03:46;;;;;;;8.97;3.47;;;6.40;99.90;;;;;;5091047;28;20211;-83
2021/12/07 10:06:14;;;;;;;9.83;3.13;;;6.40;99.90;;;;;;5094481;28;20208;-85
2021/12/07 10:08:42;;;;;;;9.80;3.03;;;6.50;99.90;;;;;;5094423;28;20200;-84
2021/12/07 10:11:12;;;;;;;8.83;2.83;;;6.60;99.90;;;;;;5094294;28;20204;-85
2021/12/07 10:13:43;;;;;;;7.53;2.37;;;6.60;99.90;;;;;;5094271;28;20210;-85
2021/12/07 10:16:13;;;;;;;6.27;2.43;;;6.70;99.90;;;;;;5093995;28;20208;-84
2021/12/07 10:18:42;;;;;;;8.70;2.83;;;6.80;99.90;;;;;;5092942;28;20208;-85
2021/12/07 10:21:14;;;;;;;9.57;2.43;;;6.90;99.90;;;;;;5077930;28;20328;-85
2021/12/07 10:23:42;;;;;;;12.60;2.90;;;6.90;99.90;;;;;;5073142;28;20279;-84
2021/12/07 10:26:11;;;;;;;8.57;3.47;;;6.90;99.90;;;;;;5082622;28;20205;-84
2021/12/07 10:28:43;;;;;;;9.93;2.87;;;7.00;99.90;;;;;;5093055;28;20608;-84
2021/12/07 10:31:26;;;;;;;8.33;2.50;;;7.00;99.90;;;;;;5093367;28;20556;-83
2021/12/07 10:33:57;;;;;;;7.37;2.83;;;7.00;99.90;;;;;;5080753;28;20201;-84
2021/12/07 10:36:27;;;;;;;9.07;2.87;;;7.00;99.90;;;;;;5073173;28;20232;-85
2021/12/07 10:38:59;;;;;;;13.83;3.23;;;7.00;99.90;;;;;;5072571;28;20520;-84
2021/12/07 10:41:27;;;;;;;18.97;3.37;;;7.00;99.90;;;;;;5073078;28;20197;-84
2021/12/07 10:44:00;;;;;;;7.60;2.67;;;7.00;99.90;;;;;;5073072;28;20822;-84
2021/12/07 10:46:44;;;;;;;8.00;2.50;;;7.10;99.90;;;;;;5075812;28;20488;-84
2021/12/07 10:49:26;;;;;;;9.43;2.83;;;7.10;99.90;;;;;;5093724;28;20238;-83
2021/12/07 10:52:00;;;;;;;9.27;2.40;;;7.10;99.90;;;;;;5092905;28;20581;-85
2021/12/07 10:54:28;;;;;;;13.00;3.20;;;7.10;99.90;;;;;;5091259;28;20196;-85
2021/12/07 10:56:58;;;;;;;9.60;2.33;;;7.20;99.90;;;;;;5094231;28;20200;-84
2021/12/07 10:59:29;;;;;;;11.43;2.40;;;7.20;99.90;;;;;;5090165;28;20200;-84
2021/12/07 11:01:58;;;;;;;7.83;2.10;;;7.20;99.90;;;;;;5091716;28;20196;-84
2021/12/07 11:04:31;;;;;;;6.50;2.47;;;7.20;99.90;;;;;;5067391;28;20208;-86
2021/12/07 11:07:10;;;;;;;10.33;2.27;;;7.20;99.90;;;;;;5073243;28;20601;-84
2021/12/07 11:09:43;;;;;;;10.97;2.27;;;7.30;99.90;;;;;;5085522;28;20236;-86
2021/12/07 11:12:13;;;;;;;12.87;3.23;;;7.30;99.90;;;;;;5086360;28;20258;-86
2021/12/07 11:14:47;;;;;;;9.40;2.60;;;7.30;99.90;;;;;;5072488;28;20193;-85
2021/12/07 11:17:15;;;;;;;7.03;2.57;;;7.30;99.90;;;;;;5071504;28;20197;-84
2021/12/07 11:19:41;;;;;;;13.27;2.73;;;7.30;99.90;;;;;;5069577;28;20193;-85
2021/12/07 11:22:08;;;;;;;9.97;2.30;;;7.30;99.90;;;;;;5068583;28;20213;-83
2021/12/07 11:24:37;;;;;;;10.73;2.53;;;7.40;99.90;;;;;;5069364;28;20499;-84
2021/12/07 11:30:06;;;;;;;16.00;4.57;;;7.40;99.90;;;;;;5072438;28;20343;-84
2021/12/07 11:32:33;;;;;;;8.37;2.47;;;7.40;99.90;;;;;;5072327;28;20182;-84
2021/12/07 11:35:16;;;;;;;10.30;3.27;;;7.40;99.90;;;;;;5092101;28;20218;-84
2021/12/07 11:37:45;;;;;;;10.80;3.60;;;7.40;99.90;;;;;;5091527;28;20246;-84
2021/12/07 11:40:13;;;;;;;9.97;2.73;;;7.40;99.90;;;;;;5091147;28;20197;-84
2021/12/07 11:42:42;;;;;;;8.00;2.60;;;7.40;99.90;;;;;;5091583;28;20215;-83
2021/12/07 11:45:18;;;;;;;7.43;2.63;;;7.40;99.90;;;;;;5092582;28;20250;-83
2021/12/07 11:47:47;;;;;;;8.17;2.50;;;7.40;99.90;;;;;;5092240;28;20189;-85
2021/12/07 11:50:19;;;;;;;10.70;2.50;;;7.40;99.90;;;;;;5092355;28;20304;-83
2021/12/07 11:52:47;;;;;;;11.03;3.33;;;7.50;99.90;;;;;;5079461;28;20610;-85
2021/12/07 11:55:14;;;;;;;5.63;2.20;;;7.50;99.90;;;;;;5071575;28;20212;-85
2021/12/07 11:57:42;;;;;;;7.90;2.60;;;7.50;99.90;;;;;;5070954;28;20197;-87
2021/12/07 12:00:12;;;;;;;9.90;2.73;;;7.50;99.90;;;;;;5072023;28;20198;-82
2021/12/07 12:02:41;;;;;;;11.10;3.13;;;7.50;99.90;;;;;;5071216;28;20220;-83
2021/12/07 12:05:09;;;;;;;6.90;2.10;;;7.60;99.90;;;;;;5071164;28;20759;-82
2021/12/07 12:07:40;;;;;;;7.57;1.73;;;7.60;99.90;;;;;;5069753;28;20224;-83
2021/12/07 12:10:09;;;;;;;7.13;2.43;;;7.50;99.90;;;;;;5069383;28;20617;-84
2021/12/07 12:12:45;;;;;;;7.57;2.50;;;7.50;99.90;;;;;;5071257;28;20213;-82
2021/12/07 12:15:27;;;;;;;7.47;2.27;;;7.50;99.90;;;;;;5070819;28;20233;-82
2021/12/07 12:18:06;;;;;;;9.43;2.17;;;7.50;99.90;;;;;;5069501;28;20186;-84
2021/12/07 12:20:43;;;;;;;8.83;2.47;;;7.40;99.90;;;;;;5069736;28;20197;-81
2021/12/07 12:23:20;;;;;;;5.80;1.90;;;7.40;99.90;;;;;;5069703;28;20197;-83
2021/12/07 12:25:56;;;;;;;10.50;2.27;;;7.40;99.90;;;;;;5090522;28;20188;-84
2021/12/07 12:28:26;;;;;;;6.13;2.17;;;7.40;99.90;;;;;;5088341;28;20234;-83
2021/12/07 12:30:53;;;;;;;11.57;2.60;;;7.40;99.90;;;;;;5069820;28;20229;-84
2021/12/07 12:33:22;;;;;;;13.67;3.53;;;7.40;99.90;;;;;;5070374;28;20201;-84
2021/12/07 12:35:53;;;;;;;13.20;3.33;;;7.30;99.90;;;;;;5069707;28;20247;-82
2021/12/07 12:38:22;;;;;;;7.80;2.60;;;7.30;99.90;;;;;;5069962;28;20217;-81
2021/12/07 12:40:58;;;;;;;10.23;3.20;;;7.20;99.90;;;;;;5070022;28;20408;-83
2021/12/07 12:43:40;;;;;;;11.73;2.83;;;7.20;99.90;;;;;;5085324;28;20474;-84
2021/12/07 12:46:08;;;;;;;10.00;3.07;;;7.10;99.90;;;;;;5059225;28;20201;-83
2021/12/07 12:48:36;;;;;;;9.30;2.70;;;7.10;99.90;;;;;;5068293;28;20225;-83
2021/12/07 12:51:04;;;;;;;14.30;3.03;;;7.00;99.90;;;;;;5070264;28;20221;-84
2021/12/07 12:53:34;;;;;;;8.20;3.37;;;7.00;99.90;;;;;;5085454;28;20513;-85
2021/12/07 12:56:03;;;;;;;10.00;3.73;;;7.00;99.90;;;;;;5088549;28;20287;-84
2021/12/07 12:58:42;;;;;;;17.40;3.60;;;7.00;99.90;;;;;;5086920;28;20212;-83
2021/12/07 13:01:24;;;;;;;15.40;3.80;;;6.90;99.90;;;;;;5069470;28;20491;-83
2021/12/07 13:04:10;;;;;;;14.73;4.00;;;6.90;99.90;;;;;;5069305;28;20228;-82
2021/12/07 13:06:52;;;;;;;14.43;4.67;;;6.90;99.90;;;;;;5067920;28;20215;-81
2021/12/07 13:09:29;;;;;;;13.60;5.03;;;6.80;99.90;;;;;;5069177;28;20241;-84
2021/12/07 13:11:58;;;;;;;12.53;4.40;;;6.70;99.90;;;;;;5068109;28;20890;-82
2021/12/07 13:14:37;;;;;;;13.20;5.03;;;6.70;99.90;;;;;;5068359;28;20189;-83
2021/12/07 13:17:17;;;;;;;19.43;5.63;;;6.60;99.90;;;;;;5069528;28;20201;-82
2021/12/07 13:20:12;;;;;;;20.23;6.50;;;6.60;99.90;;;;;;5086646;28;20215;-82
2021/12/07 13:22:43;;;;;;;22.57;5.83;;;6.50;99.90;;;;;;5087579;28;20212;-84
2021/12/07 13:25:12;;;;;;;21.83;5.80;;;6.50;99.90;;;;;;5071816;28;20213;-84
2021/12/07 13:27:57;;;;;;;18.07;6.43;;;6.50;99.90;;;;;;5069826;28;20536;-83
2021/12/07 13:30:23;;;;;;;26.83;7.00;;;6.50;99.90;;;;;;5068956;28;20303;-83
2021/12/07 13:33:04;;;;;;;18.37;6.90;;;6.40;99.90;;;;;;5069858;28;20213;-83
2021/12/07 13:35:33;;;;;;;18.33;6.57;;;6.40;99.90;;;;;;5068908;28;20295;-83
2021/12/07 13:38:15;;;;;;;22.67;6.63;;;6.30;99.90;;;;;;5068724;28;20746;-81
2021/12/07 13:40:42;;;;;;;13.57;5.40;;;6.30;99.90;;;;;;5069221;28;20216;-80
2021/12/07 13:43:09;;;;;;;19.00;6.13;;;6.30;99.90;;;;;;5069085;28;20205;-81
2021/12/07 13:45:36;;;;;;;16.83;5.17;;;6.30;99.90;;;;;;5068572;28;20255;-83
2021/12/07 13:48:04;;;;;;;15.50;5.77;;;6.20;99.90;;;;;;5069900;28;20205;-85
2021/12/07 13:50:33;;;;;;;14.20;5.97;;;6.20;99.90;;;;;;5069337;28;20574;-83
2021/12/07 13:53:00;;;;;;;18.83;6.77;;;6.20;99.90;;;;;;5069131;28;20208;-84
2021/12/07 13:55:30;;;;;;;14.00;5.83;;;6.20;99.90;;;;;;5068637;28;20208;-81
2021/12/07 13:57:59;;;;;;;14.67;5.50;;;6.10;99.90;;;;;;5069298;28;20205;-84
2021/12/07 14:00:28;;;;;;;12.00;4.73;;;6.20;99.90;;;;;;5069131;28;20201;-82
2021/12/07 14:02:58;;;;;;;12.30;5.77;;;6.20;99.90;;;;;;5069348;28;20206;-82
2021/12/07 14:05:26;;;;;;;12.30;4.70;;;6.10;99.90;;;;;;5068926;28;20227;-85
2021/12/07 14:07:58;;;;;;;10.57;4.70;;;6.10;99.90;;;;;;5069226;28;20768;-86
2021/12/07 14:10:27;;;;;;;17.53;5.07;;;6.00;99.90;;;;;;5068321;28;20237;-83
2021/12/07 14:12:56;;;;;;;12.83;4.43;;;6.00;99.90;;;;;;5068602;28;20198;-81
2021/12/07 14:15:27;;;;;;;10.93;4.60;;;6.00;99.90;;;;;;5085365;28;20209;-87
2021/12/07 14:17:57;;;;;;;10.93;4.10;;;6.00;99.90;;;;;;5088867;28;20309;-83
2021/12/07 14:20:43;;;;;;;13.23;4.17;;;5.90;99.90;;;;;;5087278;28;20789;-84
2021/12/07 14:23:20;;;;;;;10.03;4.00;;;5.90;99.90;;;;;;5072233;28;20470;-81
2021/12/07 14:25:53;;;;;;;12.73;3.90;;;5.80;99.90;;;;;;5084994;28;20197;-82
2021/12/07 14:28:34;;;;;;;11.37;3.63;;;5.80;99.90;;;;;;5091031;28;20201;-84